Portada
METAR-TAF:

METAR-TAF

Aeroports :

Ouargla, Algèria

latitud: 31-55N, longitud: 005-24E, altitud: 141 m

Observació

L'informe es va fer fa 35 minuts, a les 17:00 UTC
Vent 8 kt del Nord-Est
Temperatura 31°C
Humitat 26%
Pressió 1006 hPa
Visibilitat 10 km o més
sense núvols per sota de 1500 mi sense presència de cumulonimbus.

METAR: DAUU 201700Z 04008KT CAVOK 31/09 Q1006

Hora: 18:35 (17:35 UTC)

Pronòstic

L'informe es va fer fa 3 hores i 35 minuts, a les 14:00 UTC
Pronòstic vàlid del 20 a les 15 UTC al 20 a les 24 UTC
Vent 12 kt del Nord/Nord-Est
Visibilitat: 8000 m
Probabilitat 30% :
Temporalment
l' 20 a les 15 UTC al 20 a les 18 UTC
Vent 15 kt del Nord-Est amb ràfegues de 25 kt
Visibilitat: 5000 m
torb baixa de sorra

TAF: DAUU 201400Z 2015/2024 02012KT 8000 NSC PROB30 TEMPO 2015/2018 04015G25KT 5000 DRSA

Observacions i pronòstics meteorològics de més de 4000 aeroports (METAR i TAF).

Les estacions disponibles són els punts grocs i vermells al mapa.

Posi el ratolí al punt desitjat per veure el nom de l'estació.

Feu clic per veure les observacions i els pronòstics meteorològics.

Per canviar el mapa: feu clic els botons verds amb una creu de color negre per apropar; al botó verd amb un guió per allunyar la imatge; o en les fletxes verdes per a mapes adjacents.


METAR-TAF: